createdAt,value
2018-04-12T00:00:30.782Z,0.00
2018-04-12T00:01:30.774Z,0.00
2018-04-12T00:02:30.769Z,0.00
2018-04-12T00:03:30.767Z,0.00
2018-04-12T00:04:30.757Z,0.00
2018-04-12T00:05:30.748Z,0.00
2018-04-12T00:06:30.742Z,0.00
2018-04-12T00:07:30.736Z,0.00
2018-04-12T00:08:30.731Z,0.00
2018-04-12T00:09:30.733Z,0.00
2018-04-12T00:10:30.717Z,0.00
2018-04-12T00:11:30.711Z,0.00
2018-04-12T00:12:30.704Z,0.00
2018-04-12T00:13:30.701Z,0.00
2018-04-12T00:14:30.692Z,0.00
2018-04-12T00:15:30.686Z,0.00
2018-04-12T00:16:30.678Z,0.00
2018-04-12T00:17:30.671Z,0.00
2018-04-12T00:18:30.666Z,0.00
2018-04-12T00:19:30.659Z,0.00
2018-04-12T00:20:30.653Z,0.00
2018-04-12T00:21:30.645Z,0.00
2018-04-12T00:22:30.642Z,0.00
2018-04-12T00:23:30.634Z,0.00
2018-04-12T00:24:30.627Z,0.00
2018-04-12T00:25:30.621Z,0.00
2018-04-12T00:26:30.616Z,0.00
2018-04-12T00:27:30.609Z,0.00
2018-04-12T00:28:30.604Z,0.00
2018-04-12T00:29:30.596Z,0.00
2018-04-12T00:30:30.591Z,0.00
2018-04-12T00:31:30.588Z,0.00
2018-04-12T00:32:30.579Z,0.00
2018-04-12T00:33:30.570Z,0.00
2018-04-12T00:34:30.565Z,0.00
2018-04-12T00:35:30.559Z,0.00
2018-04-12T00:36:30.553Z,0.00
2018-04-12T00:37:30.547Z,0.00
2018-04-12T00:38:30.541Z,0.00
2018-04-12T00:39:30.536Z,0.00
2018-04-12T00:40:30.529Z,0.00
2018-04-12T00:41:30.523Z,0.00
2018-04-12T00:42:30.517Z,0.00
2018-04-12T00:43:30.511Z,0.00
2018-04-12T00:44:30.505Z,0.00
2018-04-12T00:45:30.497Z,0.00
2018-04-12T00:46:30.492Z,0.00
2018-04-12T00:47:30.486Z,0.00
2018-04-12T00:48:30.481Z,0.00
2018-04-12T00:49:30.474Z,0.00
2018-04-12T00:50:30.467Z,0.00
2018-04-12T00:51:30.461Z,0.00
2018-04-12T00:52:30.455Z,0.00
2018-04-12T00:53:30.448Z,0.00
2018-04-12T00:54:30.442Z,0.00
2018-04-12T00:55:30.438Z,0.00
2018-04-12T00:56:30.431Z,0.00
2018-04-12T00:57:30.429Z,0.00
2018-04-12T00:58:30.420Z,0.00
2018-04-12T00:59:30.414Z,0.00
2018-04-12T01:00:30.408Z,0.00
2018-04-12T01:01:30.401Z,0.00
2018-04-12T01:02:30.397Z,0.00
2018-04-12T01:03:30.390Z,0.00
2018-04-12T01:04:30.386Z,0.00
2018-04-12T01:05:30.377Z,0.00
2018-04-12T01:06:30.371Z,0.00
2018-04-12T01:07:30.366Z,0.00
2018-04-12T01:08:30.360Z,0.00
2018-04-12T01:09:30.353Z,0.00
2018-04-12T01:10:30.348Z,0.00
2018-04-12T01:11:30.341Z,0.00
2018-04-12T01:12:30.336Z,0.00
2018-04-12T01:13:30.331Z,0.00
2018-04-12T01:14:30.324Z,0.00
2018-04-12T01:15:30.318Z,0.00
2018-04-12T01:16:30.313Z,0.00
2018-04-12T01:17:30.307Z,0.00
2018-04-12T01:18:30.301Z,0.00
2018-04-12T01:19:30.293Z,0.00
2018-04-12T01:20:30.289Z,0.00
2018-04-12T01:21:30.282Z,0.00
2018-04-12T01:22:30.274Z,0.00
2018-04-12T01:23:30.270Z,0.00
2018-04-12T01:24:30.264Z,0.00
2018-04-12T01:25:30.257Z,0.00
2018-04-12T01:26:30.251Z,0.00
2018-04-12T01:27:30.245Z,0.00
2018-04-12T01:28:30.239Z,0.00
2018-04-12T01:29:30.233Z,0.00
2018-04-12T01:30:30.228Z,0.00
2018-04-12T01:31:30.222Z,0.00
2018-04-12T01:32:30.216Z,0.00
2018-04-12T01:33:30.209Z,0.00
2018-04-12T01:34:30.202Z,0.00
2018-04-12T01:35:30.198Z,0.00
2018-04-12T01:36:30.195Z,0.00
2018-04-12T01:37:30.190Z,0.00
2018-04-12T01:38:30.178Z,0.00
2018-04-12T01:39:30.171Z,0.00
2018-04-12T01:40:30.166Z,0.00
2018-04-12T01:41:30.159Z,0.00
2018-04-12T01:42:30.152Z,0.00
2018-04-12T01:43:30.150Z,0.00
2018-04-12T01:44:30.141Z,0.00
2018-04-12T01:45:30.135Z,0.00
2018-04-12T01:46:30.129Z,0.00
2018-04-12T01:47:30.123Z,0.00
2018-04-12T01:48:30.117Z,0.00
2018-04-12T01:49:30.109Z,0.00
2018-04-12T01:50:30.104Z,0.00
2018-04-12T01:51:30.097Z,0.00
2018-04-12T01:52:30.092Z,0.00
2018-04-12T01:53:30.084Z,0.00
2018-04-12T01:54:30.078Z,0.00
2018-04-12T01:55:30.072Z,0.00
2018-04-12T01:56:30.066Z,0.00
2018-04-12T01:57:30.060Z,0.00
2018-04-12T01:58:30.056Z,0.00
2018-04-12T01:59:30.049Z,0.00
2018-04-12T02:00:30.048Z,0.00
2018-04-12T02:01:30.051Z,0.00
2018-04-12T02:02:30.030Z,0.00
2018-04-12T02:03:30.023Z,0.00
2018-04-12T02:04:30.021Z,0.00
2018-04-12T02:05:30.011Z,0.00
2018-04-12T02:06:30.005Z,0.00
2018-04-12T02:07:29.999Z,0.00
2018-04-12T02:08:29.994Z,0.00
2018-04-12T02:09:29.985Z,0.00
2018-04-12T02:10:29.979Z,0.00
2018-04-12T02:11:29.973Z,0.00
2018-04-12T02:12:29.968Z,0.00
2018-04-12T02:13:29.963Z,0.00
2018-04-12T02:14:29.956Z,0.00
2018-04-12T02:15:29.951Z,0.00
2018-04-12T02:16:29.945Z,0.00
2018-04-12T02:17:29.938Z,0.00
2018-04-12T02:18:29.931Z,0.00
2018-04-12T02:19:29.925Z,0.00
2018-04-12T02:20:29.919Z,0.00
2018-04-12T02:21:29.912Z,0.00
2018-04-12T02:22:29.909Z,0.00
2018-04-12T02:23:29.903Z,0.00
2018-04-12T02:24:29.894Z,0.00
2018-04-12T02:25:29.889Z,0.00
2018-04-12T02:26:29.883Z,0.00
2018-04-12T02:27:29.877Z,0.00
2018-04-12T02:28:29.871Z,0.00
2018-04-12T02:29:29.864Z,0.00
2018-04-12T02:30:29.858Z,0.00
2018-04-12T02:31:29.855Z,0.00
2018-04-12T02:32:29.846Z,0.00
2018-04-12T02:33:29.837Z,0.00
2018-04-12T02:34:29.832Z,0.00
2018-04-12T02:35:29.825Z,0.00
2018-04-12T02:36:29.820Z,0.00
2018-04-12T02:37:29.812Z,0.00
2018-04-12T02:38:29.813Z,0.00
2018-04-12T02:39:29.801Z,0.00
2018-04-12T02:40:29.795Z,0.00
2018-04-12T02:41:29.788Z,0.00
2018-04-12T02:42:29.783Z,0.00
2018-04-12T02:43:29.776Z,0.00
2018-04-12T02:44:29.772Z,0.00
2018-04-12T02:45:29.766Z,0.00
2018-04-12T02:46:29.762Z,0.00
2018-04-12T02:47:29.753Z,0.00
2018-04-12T02:48:29.749Z,0.00
2018-04-12T02:49:29.739Z,0.00
2018-04-12T02:50:29.733Z,0.00
2018-04-12T02:51:29.727Z,0.00
2018-04-12T02:52:29.721Z,0.00
2018-04-12T02:53:29.710Z,0.00
2018-04-12T02:54:29.704Z,0.00
2018-04-12T02:55:29.702Z,0.00
2018-04-12T02:56:29.696Z,0.00
2018-04-12T02:57:29.686Z,0.00
2018-04-12T02:58:29.680Z,0.00
2018-04-12T02:59:29.674Z,0.00
2018-04-12T03:00:29.667Z,0.00
2018-04-12T03:01:29.662Z,0.00
2018-04-12T03:02:29.655Z,0.00
2018-04-12T03:03:29.651Z,0.00
2018-04-12T03:04:29.643Z,0.00
2018-04-12T03:05:29.639Z,0.00
2018-04-12T03:06:29.637Z,0.00
2018-04-12T03:07:29.623Z,0.00
2018-04-12T03:08:29.619Z,0.00
2018-04-12T03:09:29.614Z,0.00
2018-04-12T03:10:29.608Z,0.00
2018-04-12T03:11:29.599Z,0.00
2018-04-12T03:12:29.592Z,0.00
2018-04-12T03:13:29.586Z,0.00
2018-04-12T03:14:29.580Z,0.00
2018-04-12T03:15:29.574Z,0.00
2018-04-12T03:16:29.567Z,0.00
2018-04-12T03:17:29.564Z,0.00
2018-04-12T03:18:29.558Z,0.00
2018-04-12T03:19:29.547Z,0.00
2018-04-12T03:20:29.542Z,0.00
2018-04-12T03:21:29.535Z,0.00
2018-04-12T03:22:29.530Z,0.00
2018-04-12T03:23:29.524Z,0.00
2018-04-12T03:24:29.570Z,0.00
2018-04-12T03:25:29.510Z,0.00
2018-04-12T03:26:29.505Z,0.00
2018-04-12T03:27:29.498Z,0.00
2018-04-12T03:28:29.493Z,0.00
2018-04-12T03:29:29.489Z,0.00
2018-04-12T03:30:29.484Z,0.00
2018-04-12T03:31:29.473Z,0.00
2018-04-12T03:32:29.467Z,0.00
2018-04-12T03:33:29.459Z,0.00
2018-04-12T03:34:29.455Z,0.00
2018-04-12T03:35:29.451Z,0.00
2018-04-12T03:36:29.445Z,0.00
2018-04-12T03:37:29.462Z,0.00
2018-04-12T03:38:29.429Z,0.00
2018-04-12T03:39:29.421Z,0.00
2018-04-12T03:40:29.415Z,0.00
2018-04-12T03:41:29.408Z,0.00
2018-04-12T03:42:29.402Z,0.00
2018-04-12T03:43:29.400Z,0.00
2018-04-12T03:44:29.390Z,0.00
2018-04-12T03:45:29.382Z,0.00
2018-04-12T03:46:29.376Z,0.00
2018-04-12T03:47:29.374Z,0.00
2018-04-12T03:48:29.369Z,0.00
2018-04-12T03:49:29.458Z,0.00
2018-04-12T03:50:29.372Z,0.00
2018-04-12T03:51:29.346Z,0.00
2018-04-12T03:52:29.340Z,0.00
2018-04-12T03:53:29.332Z,0.00
2018-04-12T03:54:29.331Z,0.00
2018-04-12T03:55:29.321Z,0.00
2018-04-12T03:56:29.314Z,0.00
2018-04-12T03:57:29.307Z,0.00
2018-04-12T03:58:29.304Z,0.00
2018-04-12T03:59:29.295Z,0.00
2018-04-12T04:00:29.288Z,0.00
2018-04-12T04:01:29.285Z,0.00
2018-04-12T04:02:29.291Z,0.00
2018-04-12T04:03:29.267Z,0.00
2018-04-12T04:04:29.263Z,0.00
2018-04-12T04:05:29.254Z,0.00
2018-04-12T04:06:29.248Z,0.00
2018-04-12T04:07:29.246Z,0.00
2018-04-12T04:08:29.240Z,0.00
2018-04-12T04:09:29.229Z,0.00
2018-04-12T04:10:29.224Z,0.00
2018-04-12T04:11:29.217Z,0.00
2018-04-12T04:12:29.212Z,0.00
2018-04-12T04:13:29.203Z,0.00
2018-04-12T04:14:29.249Z,0.00
2018-04-12T04:15:29.191Z,0.00
2018-04-12T04:16:29.184Z,0.00
2018-04-12T04:17:29.177Z,0.00
2018-04-12T04:18:29.170Z,0.00
2018-04-12T04:19:29.169Z,0.00
2018-04-12T04:20:29.162Z,0.00
2018-04-12T04:21:29.150Z,0.00
2018-04-12T04:22:29.145Z,0.00
2018-04-12T04:23:29.139Z,0.00
2018-04-12T04:24:29.132Z,0.00
2018-04-12T04:25:29.129Z,0.00
2018-04-12T04:26:29.118Z,0.00
2018-04-12T04:27:29.116Z,0.00
2018-04-12T04:28:29.110Z,0.00
2018-04-12T04:29:29.099Z,0.00
2018-04-12T04:30:29.093Z,0.00
2018-04-12T04:31:29.092Z,0.00
2018-04-12T04:32:29.089Z,0.00
2018-04-12T04:33:29.073Z,0.00
2018-04-12T04:34:29.068Z,0.00
2018-04-12T04:35:29.065Z,0.00
2018-04-12T04:36:29.055Z,5.63
2018-04-12T04:37:29.047Z,5.63
2018-04-12T04:38:29.042Z,5.63
2018-04-12T04:39:29.035Z,5.63
2018-04-12T04:40:29.029Z,5.63
2018-04-12T04:41:29.025Z,5.63
2018-04-12T04:42:29.020Z,5.63
2018-04-12T04:43:29.010Z,5.63
2018-04-12T04:44:29.006Z,11.25
2018-04-12T04:45:28.999Z,11.25
2018-04-12T04:46:28.992Z,11.25
2018-04-12T04:47:28.982Z,11.25
2018-04-12T04:48:28.976Z,11.25
2018-04-12T04:49:28.969Z,16.88
2018-04-12T04:50:28.962Z,16.88
2018-04-12T04:51:28.957Z,16.88
2018-04-12T04:52:28.951Z,22.50
2018-04-12T04:53:28.943Z,22.50
2018-04-12T04:54:28.936Z,22.50
2018-04-12T04:55:28.933Z,28.13
2018-04-12T04:56:28.924Z,28.13
2018-04-12T04:57:28.916Z,28.13
2018-04-12T04:58:28.909Z,33.75
2018-04-12T04:59:28.909Z,33.75
2018-04-12T05:00:28.901Z,39.38
2018-04-12T05:01:28.901Z,39.38
2018-04-12T05:02:28.888Z,45.00
2018-04-12T05:03:28.881Z,45.00
2018-04-12T05:04:28.875Z,50.63
2018-04-12T05:05:28.872Z,50.63
2018-04-12T05:06:28.857Z,56.25
2018-04-12T05:07:28.859Z,56.25
2018-04-12T05:08:28.846Z,61.88
2018-04-12T05:09:28.837Z,67.50
2018-04-12T05:10:28.832Z,67.50
2018-04-12T05:11:28.830Z,67.50
2018-04-12T05:12:28.820Z,73.13
2018-04-12T05:13:28.817Z,73.13
2018-04-12T05:14:28.811Z,78.75
2018-04-12T05:15:28.865Z,84.38
2018-04-12T05:16:28.793Z,84.38
2018-04-12T05:17:28.792Z,90.00
2018-04-12T05:18:28.790Z,101.25
2018-04-12T05:19:28.774Z,101.25
2018-04-12T05:20:28.771Z,106.88
2018-04-12T05:21:28.761Z,112.50
2018-04-12T05:22:28.756Z,118.13
2018-04-12T05:23:28.748Z,129.38
2018-04-12T05:24:28.743Z,135.00
2018-04-12T05:25:28.740Z,146.25
2018-04-12T05:26:28.734Z,157.50
2018-04-12T05:27:28.724Z,168.75
2018-04-12T05:28:28.717Z,174.38
2018-04-12T05:29:28.711Z,185.63
2018-04-12T05:30:28.707Z,191.25
2018-04-12T05:31:28.701Z,196.88
2018-04-12T05:32:28.695Z,202.50
2018-04-12T05:33:28.687Z,225.00
2018-04-12T05:34:28.682Z,241.88
2018-04-12T05:35:28.678Z,225.00
2018-04-12T05:36:28.671Z,230.63
2018-04-12T05:37:28.669Z,230.63
2018-04-12T05:38:28.664Z,230.63
2018-04-12T05:39:28.658Z,225.00
2018-04-12T05:40:28.651Z,230.63
2018-04-12T05:41:28.644Z,230.63
2018-04-12T05:42:28.643Z,247.50
2018-04-12T05:43:28.637Z,264.38
2018-04-12T05:44:28.639Z,264.38
2018-04-12T05:45:28.622Z,275.63
2018-04-12T05:46:28.619Z,275.63
2018-04-12T05:47:28.612Z,275.63
2018-04-12T05:48:28.609Z,286.88
2018-04-12T05:49:28.602Z,292.50
2018-04-12T05:50:28.597Z,303.75
2018-04-12T05:51:28.592Z,298.13
2018-04-12T05:52:28.588Z,281.25
2018-04-12T05:53:28.583Z,281.25
2018-04-12T05:54:28.577Z,292.50
2018-04-12T05:55:28.577Z,303.75
2018-04-12T05:56:28.573Z,303.75
2018-04-12T05:57:28.567Z,286.88
2018-04-12T05:58:28.562Z,286.88
2018-04-12T05:59:28.554Z,281.25
2018-04-12T06:00:28.549Z,286.88
2018-04-12T06:01:28.546Z,292.50
2018-04-12T06:02:28.540Z,303.75
2018-04-12T06:03:28.536Z,309.38
2018-04-12T06:04:28.531Z,309.38
2018-04-12T06:05:28.528Z,326.25
2018-04-12T06:06:28.521Z,326.25
2018-04-12T06:07:28.518Z,331.88
2018-04-12T06:08:28.514Z,331.88
2018-04-12T06:09:28.512Z,337.50
2018-04-12T06:10:28.508Z,348.75
2018-04-12T06:11:28.500Z,360.00
2018-04-12T06:12:28.495Z,365.63
2018-04-12T06:13:28.490Z,376.88
2018-04-12T06:14:28.485Z,382.50
2018-04-12T06:15:28.486Z,371.25
2018-04-12T06:16:28.482Z,371.25
2018-04-12T06:17:28.472Z,382.50
2018-04-12T06:18:28.469Z,405.00
2018-04-12T06:19:28.465Z,433.13
2018-04-12T06:20:28.475Z,427.50
2018-04-12T06:21:28.455Z,421.88
2018-04-12T06:22:28.452Z,433.13
2018-04-12T06:23:28.449Z,433.13
2018-04-12T06:24:28.444Z,461.25
2018-04-12T06:25:28.440Z,461.25
2018-04-12T06:26:28.435Z,450.00
2018-04-12T06:27:28.435Z,461.25
2018-04-12T06:28:28.462Z,466.88
2018-04-12T06:29:28.423Z,444.38
2018-04-12T06:30:28.419Z,405.00
2018-04-12T06:31:28.414Z,393.75
2018-04-12T06:32:28.411Z,399.38
2018-04-12T06:33:28.406Z,399.38
2018-04-12T06:34:28.402Z,410.63
2018-04-12T06:35:28.403Z,365.63
2018-04-12T06:36:28.406Z,360.00
2018-04-12T06:37:28.391Z,343.13
2018-04-12T06:38:28.387Z,348.75
2018-04-12T06:39:28.387Z,337.50
2018-04-12T06:40:28.383Z,365.63
2018-04-12T06:41:28.375Z,376.88
2018-04-12T06:42:28.370Z,376.88
2018-04-12T06:43:28.367Z,371.25
2018-04-12T06:44:28.364Z,371.25
2018-04-12T06:45:28.358Z,360.00
2018-04-12T06:46:28.355Z,382.50
2018-04-12T06:47:28.352Z,376.88
2018-04-12T06:48:28.347Z,354.38
2018-04-12T06:49:28.347Z,326.25
2018-04-12T06:50:28.344Z,286.88
2018-04-12T06:51:28.335Z,292.50
2018-04-12T06:52:28.330Z,298.13
2018-04-12T06:53:28.330Z,303.75
2018-04-12T06:54:28.327Z,326.25
2018-04-12T06:55:28.320Z,343.13
2018-04-12T06:56:28.315Z,365.63
2018-04-12T06:57:28.311Z,382.50
2018-04-12T06:58:28.306Z,376.88
2018-04-12T06:59:28.311Z,388.13
2018-04-12T07:00:28.298Z,382.50
2018-04-12T07:01:28.293Z,433.13
2018-04-12T07:02:28.289Z,438.75
2018-04-12T07:03:28.287Z,455.63
2018-04-12T07:04:28.281Z,523.13
2018-04-12T07:05:28.277Z,556.88
2018-04-12T07:06:28.277Z,635.63
2018-04-12T07:07:28.273Z,568.13
2018-04-12T07:08:28.272Z,455.63
2018-04-12T07:09:28.262Z,410.63
2018-04-12T07:10:28.258Z,388.13
2018-04-12T07:11:28.257Z,438.75
2018-04-12T07:12:28.254Z,455.63
2018-04-12T07:13:28.246Z,393.75
2018-04-12T07:14:28.242Z,365.63
2018-04-12T07:15:28.238Z,416.25
2018-04-12T07:16:28.235Z,410.63
2018-04-12T07:17:28.236Z,433.13
2018-04-12T07:18:28.229Z,450.00
2018-04-12T07:19:28.225Z,438.75
2018-04-12T07:20:28.220Z,399.38
2018-04-12T07:21:28.220Z,393.75
2018-04-12T07:22:28.216Z,354.38
2018-04-12T07:23:28.208Z,360.00
2018-04-12T07:24:28.205Z,388.13
2018-04-12T07:25:28.207Z,416.25
2018-04-12T07:26:28.202Z,337.50
2018-04-12T07:27:28.193Z,241.88
2018-04-12T07:28:28.191Z,191.25
2018-04-12T07:29:28.186Z,168.75
2018-04-12T07:30:28.182Z,208.13
2018-04-12T07:31:28.179Z,360.00
2018-04-12T07:32:28.176Z,450.00
2018-04-12T07:33:28.175Z,331.88
2018-04-12T07:34:28.170Z,196.88
2018-04-12T07:35:28.163Z,180.00
2018-04-12T07:36:28.159Z,253.13
2018-04-12T07:37:28.160Z,399.38
2018-04-12T07:38:28.151Z,461.25
2018-04-12T07:39:28.148Z,382.50
2018-04-12T07:40:28.144Z,219.38
2018-04-12T07:41:28.139Z,230.63
2018-04-12T07:42:28.136Z,264.38
2018-04-12T07:43:28.132Z,281.25
2018-04-12T07:44:28.129Z,241.88
2018-04-12T07:45:28.129Z,180.00
2018-04-12T07:46:28.124Z,236.25
2018-04-12T07:47:28.117Z,286.88
2018-04-12T07:48:28.113Z,303.75
2018-04-12T07:49:28.108Z,309.38
2018-04-12T07:50:28.110Z,303.75
2018-04-12T07:51:28.109Z,286.88
2018-04-12T07:52:28.101Z,247.50
2018-04-12T07:53:28.095Z,236.25
2018-04-12T07:54:28.091Z,213.75
2018-04-12T07:55:28.144Z,196.88
2018-04-12T07:56:28.083Z,174.38
2018-04-12T07:57:28.078Z,151.88
2018-04-12T07:58:28.074Z,146.25
2018-04-12T07:59:28.072Z,135.00
2018-04-12T08:00:28.067Z,135.00
2018-04-12T08:01:28.062Z,140.63
2018-04-12T08:02:28.059Z,146.25
2018-04-12T08:03:28.059Z,157.50
2018-04-12T08:04:28.055Z,168.75
2018-04-12T08:05:28.054Z,185.63
2018-04-12T08:06:28.047Z,202.50
2018-04-12T08:07:28.039Z,219.38
2018-04-12T08:08:28.037Z,236.25
2018-04-12T08:09:28.031Z,247.50
2018-04-12T08:10:28.031Z,264.38
2018-04-12T08:11:28.023Z,281.25
2018-04-12T08:12:28.020Z,286.88
2018-04-12T08:13:28.018Z,292.50
2018-04-12T08:14:28.011Z,286.88
2018-04-12T08:15:28.009Z,275.63
2018-04-12T08:16:28.004Z,270.00
2018-04-12T08:17:28.003Z,281.25
2018-04-12T08:18:27.999Z,286.88
2018-04-12T08:19:27.991Z,281.25
2018-04-12T08:20:27.989Z,275.63
2018-04-12T08:21:27.983Z,275.63
2018-04-12T08:22:27.981Z,281.25
2018-04-12T08:23:27.981Z,292.50
2018-04-12T08:24:27.977Z,298.13
2018-04-12T08:25:27.970Z,309.38
2018-04-12T08:26:27.965Z,320.63
2018-04-12T08:27:27.963Z,337.50
2018-04-12T08:28:27.958Z,343.13
2018-04-12T08:29:27.954Z,320.63
2018-04-12T08:30:27.949Z,298.13
2018-04-12T08:31:27.947Z,286.88
2018-04-12T08:32:27.942Z,298.13
2018-04-12T08:33:27.944Z,298.13
2018-04-12T08:34:27.940Z,253.13
2018-04-12T08:35:27.934Z,264.38
2018-04-12T08:36:27.931Z,258.75
2018-04-12T08:37:27.924Z,225.00
2018-04-12T08:38:27.920Z,213.75
2018-04-12T08:39:27.920Z,191.25
2018-04-12T08:40:27.911Z,168.75
2018-04-12T08:41:27.907Z,151.88
2018-04-12T08:42:27.903Z,140.63
2018-04-12T08:43:27.906Z,123.75
2018-04-12T08:44:27.900Z,129.38
2018-04-12T08:45:27.892Z,135.00
2018-04-12T08:46:27.888Z,135.00
2018-04-12T08:47:27.887Z,146.25
2018-04-12T08:48:27.885Z,157.50
2018-04-12T08:49:27.876Z,180.00
2018-04-12T08:50:27.871Z,202.50
2018-04-12T08:51:27.867Z,230.63
2018-04-12T08:52:27.869Z,253.13
2018-04-12T08:53:27.858Z,275.63
2018-04-12T08:54:27.853Z,286.88
2018-04-12T08:55:27.850Z,298.13
2018-04-12T08:56:27.846Z,281.25
2018-04-12T08:57:27.845Z,303.75
2018-04-12T08:58:27.841Z,303.75
2018-04-12T08:59:27.835Z,281.25
2018-04-12T09:00:27.829Z,286.88
2018-04-12T09:01:27.828Z,303.75
2018-04-12T09:02:27.825Z,320.63
2018-04-12T09:03:27.818Z,343.13
2018-04-12T09:04:27.814Z,360.00
2018-04-12T09:05:27.808Z,376.88
2018-04-12T09:06:27.803Z,388.13
2018-04-12T09:07:27.800Z,399.38
2018-04-12T09:08:27.796Z,410.63
2018-04-12T09:09:27.792Z,410.63
2018-04-12T09:10:27.787Z,405.00
2018-04-12T09:11:27.783Z,421.88
2018-04-12T09:12:27.781Z,438.75
2018-04-12T09:13:27.777Z,455.63
2018-04-12T09:14:27.775Z,483.75
2018-04-12T09:15:27.784Z,511.88
2018-04-12T09:16:27.768Z,523.13
2018-04-12T09:17:27.760Z,528.75
2018-04-12T09:18:27.755Z,517.50
2018-04-12T09:19:27.757Z,523.13
2018-04-12T09:20:27.753Z,680.63
2018-04-12T09:21:27.748Z,787.50
2018-04-12T09:22:27.741Z,956.25
2018-04-12T09:23:27.737Z,1096.88
2018-04-12T09:24:27.735Z,1153.13
2018-04-12T09:25:27.731Z,1198.13
2018-04-12T09:26:27.728Z,1136.25
2018-04-12T09:27:27.725Z,1175.63
2018-04-12T09:28:27.726Z,1181.25
2018-04-12T09:29:27.722Z,1215.00
2018-04-12T09:30:27.719Z,1215.00
2018-04-12T09:31:27.716Z,1125.00
2018-04-12T09:32:27.716Z,1085.63
2018-04-12T09:33:27.713Z,1035.00
2018-04-12T09:34:27.711Z,1260.00
2018-04-12T09:35:27.705Z,1456.88
2018-04-12T09:36:27.704Z,1895.63
2018-04-12T09:37:27.702Z,2070.00
2018-04-12T09:38:27.701Z,2334.38
2018-04-12T09:39:27.702Z,2491.88
2018-04-12T09:40:27.700Z,2739.38
2018-04-12T09:41:27.698Z,3195.00
2018-04-12T09:42:27.699Z,3206.25
2018-04-12T09:43:27.698Z,2975.63
2018-04-12T09:44:27.700Z,3127.50
2018-04-12T09:45:27.700Z,3234.38
2018-04-12T09:46:27.701Z,3324.38
2018-04-12T09:47:27.707Z,3307.50
2018-04-12T09:48:27.710Z,2964.38
2018-04-12T09:49:27.721Z,2986.88
2018-04-12T09:50:27.711Z,2908.13
2018-04-12T09:51:27.719Z,3088.13
2018-04-12T09:52:27.735Z,3211.88
2018-04-12T09:53:27.723Z,3268.13
2018-04-12T09:54:27.730Z,2806.88
2018-04-12T09:55:27.734Z,2818.13
2018-04-12T09:56:27.739Z,3076.88
2018-04-12T09:57:27.745Z,2790.00
2018-04-12T09:58:27.750Z,2508.75
2018-04-12T09:59:27.756Z,2390.63
2018-04-12T10:00:27.763Z,2289.38
2018-04-12T10:01:27.771Z,2098.13
2018-04-12T10:02:27.779Z,1456.88
2018-04-12T10:03:27.780Z,1113.75
2018-04-12T10:04:27.787Z,1040.63
2018-04-12T10:05:27.796Z,1141.88
2018-04-12T10:06:27.803Z,1237.50
2018-04-12T10:07:27.805Z,1327.50
2018-04-12T10:08:27.812Z,1350.00
2018-04-12T10:09:27.817Z,1496.25
2018-04-12T10:10:27.822Z,1698.75
2018-04-12T10:11:27.828Z,1884.38
2018-04-12T10:12:27.835Z,1839.38
2018-04-12T10:13:27.839Z,2255.63
2018-04-12T10:14:27.860Z,2199.38
2018-04-12T10:15:27.851Z,2761.88
2018-04-12T10:16:27.856Z,2711.25
2018-04-12T10:17:27.892Z,2598.75
2018-04-12T10:18:27.864Z,2390.63
2018-04-12T10:19:27.875Z,2143.13
2018-04-12T10:20:27.879Z,2160.00
2018-04-12T10:21:27.879Z,2109.38
2018-04-12T10:22:27.886Z,2278.13
2018-04-12T10:23:27.895Z,2160.00
2018-04-12T10:24:27.901Z,2317.50
2018-04-12T10:25:27.903Z,2351.25
2018-04-12T10:26:27.910Z,2075.63
2018-04-12T10:27:27.915Z,2283.75
2018-04-12T10:28:27.924Z,2446.88
2018-04-12T10:29:27.927Z,2390.63
2018-04-12T10:30:27.934Z,2182.50
2018-04-12T10:31:27.942Z,2081.25
2018-04-12T10:32:27.949Z,2508.75
2018-04-12T10:33:27.957Z,2598.75
2018-04-12T10:34:27.965Z,2143.13
2018-04-12T10:35:27.968Z,1535.63
2018-04-12T10:36:27.978Z,1411.88
2018-04-12T10:37:27.986Z,1372.50
2018-04-12T10:38:27.999Z,1513.13
2018-04-12T10:39:27.998Z,1569.38
2018-04-12T10:40:28.004Z,1580.63
2018-04-12T10:41:28.010Z,1563.75
2018-04-12T10:42:28.016Z,1507.50
2018-04-12T10:43:28.024Z,1558.13
2018-04-12T10:44:28.052Z,1580.63
2018-04-12T10:45:28.038Z,1676.25
2018-04-12T10:46:28.045Z,1591.88
2018-04-12T10:47:28.049Z,1158.75
2018-04-12T10:48:28.051Z,1215.00
2018-04-12T10:49:28.057Z,1113.75
2018-04-12T10:50:28.062Z,1080.00
2018-04-12T10:51:28.066Z,928.13
2018-04-12T10:52:28.071Z,911.25
2018-04-12T10:53:28.076Z,973.13
2018-04-12T10:54:28.080Z,1096.88
2018-04-12T10:55:28.088Z,967.50
2018-04-12T10:56:28.089Z,978.75
2018-04-12T10:57:28.095Z,1001.25
2018-04-12T10:58:28.098Z,1006.88
2018-04-12T10:59:28.099Z,1012.50
2018-04-12T11:00:28.105Z,1029.38
2018-04-12T11:01:28.105Z,1181.25
2018-04-12T11:02:28.110Z,1136.25
2018-04-12T11:03:28.145Z,1175.63
2018-04-12T11:04:28.118Z,1175.63
2018-04-12T11:05:28.118Z,1411.88
2018-04-12T11:06:28.119Z,1243.13
2018-04-12T11:07:28.124Z,1485.00
2018-04-12T11:08:28.127Z,1468.13
2018-04-12T11:09:28.132Z,1383.75
2018-04-12T11:10:28.138Z,1102.50
2018-04-12T11:11:28.134Z,967.50
2018-04-12T11:12:28.137Z,945.00
2018-04-12T11:13:28.141Z,911.25
2018-04-12T11:14:28.141Z,922.50
2018-04-12T11:15:28.148Z,1029.38
2018-04-12T11:16:28.150Z,1164.38
2018-04-12T11:17:28.152Z,1209.38
2018-04-12T11:18:28.199Z,1198.13
2018-04-12T11:19:28.154Z,1164.38
2018-04-12T11:20:28.157Z,1355.63
2018-04-12T11:21:28.159Z,1501.88
2018-04-12T11:22:28.165Z,1361.25
2018-04-12T11:23:28.164Z,1310.63
2018-04-12T11:24:28.167Z,1310.63
2018-04-12T11:25:28.303Z,1215.00
2018-04-12T11:26:28.174Z,1119.38
2018-04-12T11:27:28.174Z,1102.50
2018-04-12T11:28:28.177Z,1119.38
2018-04-12T11:29:28.186Z,1158.75
2018-04-12T11:30:28.185Z,1276.88
2018-04-12T11:31:28.221Z,1355.63
2018-04-12T11:32:28.187Z,1434.38
2018-04-12T11:33:28.193Z,1485.00
2018-04-12T11:34:28.212Z,1496.25
2018-04-12T11:35:28.202Z,1496.25
2018-04-12T11:36:28.202Z,1501.88
2018-04-12T11:37:28.199Z,1490.63
2018-04-12T11:38:28.203Z,1490.63
2018-04-12T11:39:28.207Z,1451.25
2018-04-12T11:40:28.226Z,1411.88
2018-04-12T11:41:28.213Z,1366.88
2018-04-12T11:42:28.218Z,1338.75
2018-04-12T11:43:28.218Z,1338.75
2018-04-12T11:44:28.222Z,1333.13
2018-04-12T11:45:28.251Z,1310.63
2018-04-12T11:46:28.243Z,1305.00
2018-04-12T11:47:28.235Z,1293.75
2018-04-12T11:48:28.239Z,1254.38
2018-04-12T11:49:28.240Z,1226.25
2018-04-12T11:50:28.243Z,1164.38
2018-04-12T11:51:28.247Z,1096.88
2018-04-12T11:52:28.249Z,1068.75
2018-04-12T11:53:28.256Z,1080.00
2018-04-12T11:54:28.255Z,1057.50
2018-04-12T11:55:28.302Z,1040.63
2018-04-12T11:56:28.304Z,1001.25
2018-04-12T11:57:28.269Z,984.38
2018-04-12T11:58:28.269Z,1068.75
2018-04-12T11:59:28.277Z,1125.00
2018-04-12T12:00:28.280Z,1141.88
2018-04-12T12:01:28.280Z,1130.63
2018-04-12T12:02:28.283Z,1147.50
2018-04-12T12:03:28.285Z,1153.13
2018-04-12T12:04:28.289Z,1181.25
2018-04-12T12:05:28.291Z,1175.63
2018-04-12T12:06:28.295Z,990.00
2018-04-12T12:07:28.297Z,860.63
2018-04-12T12:08:28.301Z,787.50
2018-04-12T12:09:28.308Z,781.88
2018-04-12T12:10:28.312Z,776.25
2018-04-12T12:11:28.309Z,821.25
2018-04-12T12:12:28.327Z,916.88
2018-04-12T12:13:28.319Z,961.88
2018-04-12T12:14:28.326Z,1029.38
2018-04-12T12:15:28.322Z,1102.50
2018-04-12T12:16:28.324Z,1170.00
2018-04-12T12:17:28.327Z,1215.00
2018-04-12T12:18:28.331Z,1147.50
2018-04-12T12:19:28.335Z,1209.38
2018-04-12T12:20:28.338Z,1248.75
2018-04-12T12:21:28.341Z,1243.13
2018-04-12T12:22:28.346Z,1276.88
2018-04-12T12:23:28.348Z,1198.13
2018-04-12T12:24:28.351Z,1203.75
2018-04-12T12:25:28.352Z,1147.50
2018-04-12T12:26:28.356Z,1125.00
2018-04-12T12:27:28.364Z,1125.00
2018-04-12T12:28:28.409Z,1181.25
2018-04-12T12:29:28.367Z,1231.88
2018-04-12T12:30:28.371Z,1248.75
2018-04-12T12:31:28.377Z,1220.63
2018-04-12T12:32:28.382Z,1175.63
2018-04-12T12:33:28.381Z,1119.38
2018-04-12T12:34:28.383Z,1096.88
2018-04-12T12:35:28.386Z,995.63
2018-04-12T12:36:28.392Z,900.00
2018-04-12T12:37:28.392Z,990.00
2018-04-12T12:38:28.397Z,984.38
2018-04-12T12:39:28.400Z,945.00
2018-04-12T12:40:28.405Z,956.25
2018-04-12T12:41:28.410Z,911.25